Time;durP1;ratioP1;P1;durP2;ratioP2;P2;SDS_P1;SDS_P2;PMS_P1;PMS_P2;Temp;Humidity;BMP_temperature;BMP_pressure;BME280_temperature;BME280_humidity;BME280_pressure;Samples;Min_cycle;Max_cycle;Signal;HPM_P1;HPM_P2
2022/08/26 00:00:30;;;;;;;0.25;0.22;;;20.90;99.90;;;;;;5096366;28;20481;-80
2022/08/26 00:02:57;;;;;;;0.10;0.03;;;20.90;99.90;;;;;;5095462;28;20503;-80
2022/08/26 00:05:23;;;;;;;0.77;0.43;;;20.90;99.90;;;;;;5096367;28;20043;-80
2022/08/26 00:07:48;;;;;;;0.00;0.00;;;20.80;99.90;;;;;;5095398;28;20502;-81
2022/08/26 00:10:14;;;;;;;0.40;0.20;;;20.80;99.90;;;;;;5095996;28;20570;-81
2022/08/26 00:12:40;;;;;;;0.05;0.05;;;20.80;99.90;;;;;;5113417;28;20047;-80
2022/08/26 00:15:08;;;;;;;0.00;0.00;;;20.70;99.90;;;;;;5096235;28;20479;-80
2022/08/26 00:17:34;;;;;;;0.08;0.08;;;20.70;99.90;;;;;;5096373;28;20134;-80
2022/08/26 00:19:59;;;;;;;0.10;0.10;;;20.60;99.90;;;;;;5096335;28;20134;-80
2022/08/26 00:22:25;;;;;;;0.00;0.00;;;20.60;99.90;;;;;;5113141;28;20051;-80
2022/08/26 00:24:51;;;;;;;0.10;0.10;;;20.60;99.90;;;;;;5112955;28;20137;-80
2022/08/26 00:27:17;;;;;;;0.30;0.30;;;20.50;99.90;;;;;;5096117;28;20550;-80
2022/08/26 00:29:42;;;;;;;0.00;0.00;;;20.50;99.90;;;;;;5113095;28;20044;-80
2022/08/26 00:32:08;;;;;;;0.15;0.10;;;20.50;99.90;;;;;;5113130;28;20051;-80
2022/08/26 00:34:34;;;;;;;0.13;0.00;;;20.50;99.90;;;;;;5113393;28;20051;-80
2022/08/26 00:37:00;;;;;;;1.08;0.38;;;20.50;99.90;;;;;;5112979;28;20043;-79
2022/08/26 00:39:25;;;;;;;0.00;0.00;;;20.50;99.90;;;;;;5096033;28;20040;-79
2022/08/26 00:41:52;;;;;;;0.32;0.10;;;20.50;99.90;;;;;;5096083;28;20499;-79
2022/08/26 00:44:18;;;;;;;0.65;0.65;;;20.40;99.90;;;;;;5113467;28;20100;-79
2022/08/26 00:46:49;;;;;;;0.10;0.10;;;20.40;99.90;;;;;;5095910;28;20039;-79
2022/08/26 00:49:37;;;;;;;0.17;0.17;;;20.40;99.90;;;;;;5096052;28;20051;-80
2022/08/26 00:52:07;;;;;;;0.22;0.13;;;20.40;99.90;;;;;;5095156;28;20087;-80
2022/08/26 00:54:39;;;;;;;0.20;0.10;;;20.30;99.90;;;;;;5095922;28;20055;-80
2022/08/26 00:57:08;;;;;;;0.10;0.10;;;20.20;99.90;;;;;;5113115;28;20044;-79
2022/08/26 00:59:34;;;;;;;0.28;0.20;;;20.20;99.90;;;;;;5095609;28;20055;-79
2022/08/26 01:02:01;;;;;;;0.00;0.00;;;20.20;99.90;;;;;;5095851;28;20047;-80
2022/08/26 01:04:27;;;;;;;0.47;0.47;;;20.20;99.90;;;;;;5095640;28;20044;-80
2022/08/26 01:06:55;;;;;;;0.30;0.30;;;20.20;99.90;;;;;;5095806;28;20044;-80
2022/08/26 01:09:22;;;;;;;0.03;0.03;;;20.20;99.90;;;;;;5112948;28;20388;-79
2022/08/26 01:11:51;;;;;;;0.10;0.00;;;20.20;99.90;;;;;;5095687;28;20131;-79
2022/08/26 01:14:19;;;;;;;0.68;0.32;;;20.20;99.90;;;;;;5112671;28;20135;-79
2022/08/26 01:16:46;;;;;;;0.20;0.20;;;20.10;99.90;;;;;;5112428;28;20043;-79
2022/08/26 01:19:25;;;;;;;0.10;0.10;;;20.10;99.90;;;;;;5113118;28;20078;-79
2022/08/26 01:22:04;;;;;;;0.05;0.05;;;20.20;99.90;;;;;;5099417;28;20483;-79
2022/08/26 01:24:31;;;;;;;0.10;0.10;;;20.10;99.90;;;;;;5099598;28;20461;-79
2022/08/26 01:27:03;;;;;;;3.35;0.50;;;20.10;99.90;;;;;;5098915;28;20039;-79
2022/08/26 01:29:31;;;;;;;0.17;0.13;;;20.00;99.90;;;;;;5116229;28;20077;-79
2022/08/26 01:31:57;;;;;;;0.65;0.10;;;20.10;99.90;;;;;;5116121;28;20051;-79
2022/08/26 01:34:33;;;;;;;0.10;0.10;;;20.00;99.90;;;;;;5099217;28;20047;-79
2022/08/26 01:37:14;;;;;;;0.30;0.30;;;20.00;99.90;;;;;;5115896;28;20526;-78
2022/08/26 01:39:41;;;;;;;0.30;0.10;;;19.90;99.90;;;;;;5115868;28;20418;-78
2022/08/26 01:42:10;;;;;;;0.70;0.70;;;19.90;99.90;;;;;;5115816;28;20051;-78
2022/08/26 01:44:43;;;;;;;1.13;0.32;;;20.00;99.90;;;;;;5099515;28;20043;-78
2022/08/26 01:47:11;;;;;;;0.10;0.10;;;20.00;99.90;;;;;;5099173;28;20048;-78
2022/08/26 01:49:38;;;;;;;2.30;1.13;;;20.00;99.90;;;;;;5098891;28;20048;-78
2022/08/26 01:52:06;;;;;;;0.08;0.08;;;20.00;99.90;;;;;;5098809;28;20044;-78
2022/08/26 01:54:32;;;;;;;0.00;0.00;;;20.00;99.90;;;;;;5098849;28;20078;-79
2022/08/26 01:56:59;;;;;;;1.67;0.70;;;20.00;99.90;;;;;;5098986;28;20441;-79
2022/08/26 01:59:25;;;;;;;1.75;1.15;;;20.10;99.90;;;;;;5097990;28;20052;-79
2022/08/26 02:01:51;;;;;;;2.40;1.10;;;20.10;99.90;;;;;;5098239;28;20051;-80
2022/08/26 02:04:29;;;;;;;0.08;0.08;;;20.10;99.90;;;;;;5115428;28;20046;-80
2022/08/26 02:06:56;;;;;;;0.38;0.25;;;20.10;99.90;;;;;;5098376;28;20047;-80
2022/08/26 02:09:23;;;;;;;0.52;0.43;;;20.10;99.90;;;;;;5098510;28;20510;-80
2022/08/26 02:11:49;;;;;;;0.55;0.55;;;20.10;99.90;;;;;;5098484;28;20051;-80
2022/08/26 02:14:21;;;;;;;0.40;0.40;;;20.10;99.90;;;;;;5098540;28;20417;-80
2022/08/26 02:16:51;;;;;;;0.10;0.10;;;20.10;99.90;;;;;;5098239;28;20051;-80
2022/08/26 02:19:20;;;;;;;2.17;0.68;;;20.20;99.90;;;;;;5098235;28;20083;-80
2022/08/26 02:21:50;;;;;;;4.53;0.85;;;20.20;99.90;;;;;;5098169;28;20048;-80
2022/08/26 02:24:26;;;;;;;0.70;0.70;;;20.20;99.90;;;;;;5115242;28;20040;-80
2022/08/26 02:26:52;;;;;;;2.50;0.38;;;20.20;99.90;;;;;;5098314;28;20420;-79
2022/08/26 02:29:27;;;;;;;0.35;0.35;;;20.20;99.90;;;;;;5098317;28;20062;-80
2022/08/26 02:31:56;;;;;;;0.55;0.22;;;20.20;99.90;;;;;;5113958;28;20058;-80
2022/08/26 02:34:27;;;;;;;0.10;0.10;;;20.20;99.90;;;;;;5097814;28;20051;-80
2022/08/26 02:36:55;;;;;;;0.45;0.25;;;20.20;99.90;;;;;;5115219;28;20471;-80
2022/08/26 02:39:21;;;;;;;1.95;0.65;;;20.30;99.90;;;;;;5097810;28;20047;-80
2022/08/26 02:41:47;;;;;;;0.95;0.50;;;20.20;99.90;;;;;;5097842;28;20152;-80
2022/08/26 02:44:13;;;;;;;0.20;0.20;;;20.30;99.90;;;;;;5097927;28;20058;-80
2022/08/26 02:46:40;;;;;;;1.38;0.47;;;20.20;99.90;;;;;;5114406;28;20063;-80
2022/08/26 02:49:06;;;;;;;0.63;0.63;;;20.30;99.90;;;;;;5098106;28;20043;-80
2022/08/26 02:51:31;;;;;;;0.52;0.50;;;20.20;99.90;;;;;;5114923;28;20491;-80
2022/08/26 02:53:57;;;;;;;0.28;0.28;;;20.20;99.90;;;;;;5115067;28;20058;-80
2022/08/26 02:56:23;;;;;;;0.70;0.45;;;20.20;99.90;;;;;;5114749;28;20058;-80
2022/08/26 02:58:49;;;;;;;0.75;0.38;;;20.20;99.90;;;;;;5114462;28;20058;-80
2022/08/26 03:01:30;;;;;;;0.50;0.50;;;20.20;99.90;;;;;;5115231;28;20043;-80
2022/08/26 03:03:57;;;;;;;0.10;0.10;;;20.20;99.90;;;;;;5114890;28;20042;-80
2022/08/26 03:06:23;;;;;;;0.10;0.10;;;20.20;99.90;;;;;;5114488;28;20047;-80
2022/08/26 03:08:49;;;;;;;0.77;0.70;;;20.30;99.90;;;;;;5097542;28;20055;-80
2022/08/26 03:11:17;;;;;;;0.98;0.93;;;20.20;99.90;;;;;;5097644;28;20415;-80
2022/08/26 03:13:43;;;;;;;0.50;0.50;;;20.20;99.90;;;;;;5114320;28;20089;-80
2022/08/26 03:16:09;;;;;;;0.30;0.30;;;20.20;99.90;;;;;;5097653;28;20051;-80
2022/08/26 03:18:35;;;;;;;0.50;0.40;;;20.20;99.90;;;;;;5114156;28;20043;-80
2022/08/26 03:21:06;;;;;;;0.55;0.50;;;20.20;99.90;;;;;;5096773;28;20059;-80
2022/08/26 03:23:32;;;;;;;0.10;0.10;;;20.20;99.90;;;;;;5097397;28;20052;-80
2022/08/26 03:25:58;;;;;;;0.50;0.50;;;20.20;99.90;;;;;;5114152;28;20065;-80
2022/08/26 03:28:24;;;;;;;0.50;0.40;;;20.30;99.90;;;;;;5114004;28;20134;-80
2022/08/26 03:30:49;;;;;;;0.50;0.28;;;20.20;99.90;;;;;;5097797;28;20039;-80
2022/08/26 03:33:15;;;;;;;1.20;0.90;;;20.20;99.90;;;;;;5114104;28;20035;-80
2022/08/26 03:35:43;;;;;;;1.70;1.05;;;20.20;99.90;;;;;;5114069;28;20676;-80
2022/08/26 03:38:10;;;;;;;0.30;0.20;;;20.20;99.90;;;;;;5114074;28;20247;-80
2022/08/26 03:40:36;;;;;;;0.20;0.20;;;20.10;99.90;;;;;;5096871;28;20130;-80
2022/08/26 03:43:06;;;;;;;0.70;0.43;;;20.20;99.90;;;;;;5095634;28;20130;-80
2022/08/26 03:45:32;;;;;;;0.15;0.15;;;20.20;99.90;;;;;;5095432;28;20043;-80
2022/08/26 03:47:59;;;;;;;2.28;0.95;;;20.10;99.90;;;;;;5111567;28;20044;-80
2022/08/26 03:50:25;;;;;;;0.35;0.10;;;20.10;99.90;;;;;;5096783;28;20051;-80
2022/08/26 03:52:52;;;;;;;0.52;0.50;;;20.20;99.90;;;;;;5096662;28;20092;-80
2022/08/26 03:55:20;;;;;;;0.20;0.20;;;20.10;99.90;;;;;;5096481;28;20044;-80
2022/08/26 03:57:46;;;;;;;0.50;0.50;;;20.10;99.90;;;;;;5096102;28;20048;-80
2022/08/26 04:00:14;;;;;;;0.63;0.40;;;20.10;99.90;;;;;;5113457;28;20510;-81
2022/08/26 04:02:45;;;;;;;0.38;0.20;;;20.20;99.90;;;;;;5113774;28;20092;-80
2022/08/26 04:05:12;;;;;;;0.32;0.32;;;20.10;99.90;;;;;;5113287;28;20055;-80
2022/08/26 04:07:39;;;;;;;0.57;0.57;;;20.10;99.90;;;;;;5095823;28;20032;-80
2022/08/26 04:10:06;;;;;;;0.77;0.77;;;20.10;99.90;;;;;;5095865;28;20053;-80
2022/08/26 04:12:31;;;;;;;0.38;0.20;;;20.10;99.90;;;;;;5095616;28;20054;-80
2022/08/26 04:14:57;;;;;;;0.30;0.30;;;20.10;99.90;;;;;;5096120;28;20048;-80
2022/08/26 04:17:25;;;;;;;0.30;0.30;;;20.10;99.90;;;;;;5095608;28;20109;-80
2022/08/26 04:19:52;;;;;;;0.30;0.30;;;20.10;99.90;;;;;;5096380;28;20074;-80
2022/08/26 04:22:18;;;;;;;0.30;0.30;;;20.10;99.90;;;;;;5095152;28;20403;-80
2022/08/26 04:24:45;;;;;;;0.10;0.05;;;20.10;99.90;;;;;;5113144;28;20043;-80
2022/08/26 04:27:11;;;;;;;0.98;0.52;;;20.10;99.90;;;;;;5113121;28;20089;-80
2022/08/26 04:29:40;;;;;;;2.05;0.90;;;20.10;99.90;;;;;;5113319;28;20039;-80
2022/08/26 04:32:07;;;;;;;0.40;0.40;;;20.10;99.90;;;;;;5113182;28;20441;-80
2022/08/26 04:34:34;;;;;;;0.10;0.10;;;20.10;99.90;;;;;;5113227;28;20426;-80
2022/08/26 04:37:00;;;;;;;1.02;0.90;;;20.10;99.90;;;;;;5112995;28;20150;-80
2022/08/26 04:39:26;;;;;;;0.38;0.38;;;20.10;99.90;;;;;;5112641;28;20141;-78
2022/08/26 04:41:53;;;;;;;0.10;0.10;;;20.10;99.90;;;;;;5113097;28;20048;-78
2022/08/26 04:44:21;;;;;;;0.50;0.50;;;20.10;99.90;;;;;;5113280;28;20048;-78
2022/08/26 04:46:46;;;;;;;0.10;0.10;;;20.20;99.90;;;;;;5112755;28;20036;-78
2022/08/26 04:49:12;;;;;;;0.20;0.20;;;20.20;99.90;;;;;;5095942;28;20089;-79
2022/08/26 04:51:39;;;;;;;0.75;0.47;;;20.20;99.90;;;;;;5095907;28;20092;-78
2022/08/26 04:54:05;;;;;;;6.55;0.95;;;20.20;99.90;;;;;;5096326;28;20048;-78
2022/08/26 04:56:42;;;;;;;0.68;0.13;;;20.20;99.90;;;;;;5100232;28;20039;-79
2022/08/26 04:59:11;;;;;;;2.08;0.47;;;20.20;99.90;;;;;;5116702;28;20052;-79
2022/08/26 05:01:37;;;;;;;0.00;0.00;;;20.20;99.90;;;;;;5117145;28;20528;-80
2022/08/26 05:04:04;;;;;;;1.58;1.25;;;20.20;99.90;;;;;;5116890;28;20047;-79
2022/08/26 05:06:30;;;;;;;0.40;0.30;;;20.30;99.90;;;;;;5116828;28;20039;-79
2022/08/26 05:08:56;;;;;;;0.10;0.10;;;20.20;99.90;;;;;;5100087;28;20047;-79
2022/08/26 05:11:21;;;;;;;0.60;0.30;;;20.30;99.90;;;;;;5114667;28;20051;-80
2022/08/26 05:13:48;;;;;;;0.55;0.38;;;20.30;99.90;;;;;;5099098;28;20059;-80
2022/08/26 05:16:15;;;;;;;0.60;0.30;;;20.30;99.90;;;;;;5099363;28;20505;-79
2022/08/26 05:18:42;;;;;;;0.55;0.20;;;20.30;99.90;;;;;;5099579;28;20432;-79
2022/08/26 05:21:15;;;;;;;1.85;0.55;;;20.40;99.90;;;;;;5116725;28;20479;-79
2022/08/26 05:23:40;;;;;;;0.30;0.30;;;20.40;99.90;;;;;;5099896;28;20134;-79
2022/08/26 05:26:07;;;;;;;2.63;0.98;;;20.40;99.90;;;;;;5116554;28;20460;-78
2022/08/26 05:28:33;;;;;;;5.78;1.23;;;20.40;99.90;;;;;;5099185;28;20086;-79
2022/08/26 05:30:59;;;;;;;0.10;0.10;;;20.50;99.90;;;;;;5099226;28;20440;-79
2022/08/26 05:33:24;;;;;;;0.20;0.20;;;20.40;99.90;;;;;;5116230;28;20043;-79
2022/08/26 05:35:50;;;;;;;0.10;0.10;;;20.50;99.90;;;;;;5116338;28;20098;-79
2022/08/26 05:38:19;;;;;;;1.23;0.30;;;20.50;99.90;;;;;;5116147;28;20036;-79
2022/08/26 05:40:48;;;;;;;0.10;0.10;;;20.40;99.90;;;;;;5099185;28;20066;-79
2022/08/26 05:43:15;;;;;;;0.25;0.20;;;20.40;99.90;;;;;;5099360;28;20043;-78
2022/08/26 05:45:43;;;;;;;0.20;0.20;;;20.50;99.90;;;;;;5116070;28;20043;-79
2022/08/26 05:48:09;;;;;;;0.45;0.45;;;20.50;99.90;;;;;;5098883;28;20089;-78
2022/08/26 05:50:40;;;;;;;0.20;0.20;;;20.50;99.90;;;;;;5099319;28;20079;-79
2022/08/26 05:53:07;;;;;;;0.10;0.10;;;20.60;99.90;;;;;;5099296;28;20379;-78
2022/08/26 05:55:33;;;;;;;0.00;0.00;;;20.60;99.90;;;;;;5098835;28;20509;-79
2022/08/26 05:57:59;;;;;;;0.88;0.50;;;20.60;99.90;;;;;;5098444;28;20055;-79
2022/08/26 06:00:26;;;;;;;0.28;0.28;;;20.60;99.90;;;;;;5097882;28;20505;-79
2022/08/26 06:02:52;;;;;;;0.10;0.10;;;20.70;99.90;;;;;;5099406;28;20135;-79
2022/08/26 06:05:18;;;;;;;0.32;0.20;;;20.80;99.90;;;;;;5115497;28;20543;-79
2022/08/26 06:10:28;;;;;;;0.70;0.17;;;20.80;99.90;;;;;;5115724;28;20043;-79
2022/08/26 06:12:53;;;;;;;0.00;0.00;;;20.80;99.90;;;;;;5115156;28;20047;-79
2022/08/26 06:15:19;;;;;;;0.52;0.52;;;20.80;99.90;;;;;;5115416;28;20039;-78
2022/08/26 06:17:44;;;;;;;0.20;0.20;;;20.70;99.90;;;;;;5098496;28;20040;-78
2022/08/26 06:20:10;;;;;;;0.50;0.20;;;20.80;99.90;;;;;;5115224;28;20043;-78
2022/08/26 06:25:38;;;;;;;0.55;0.10;;;20.80;99.90;;;;;;5115234;28;20491;-79
2022/08/26 06:28:05;;;;;;;1.40;0.30;;;20.90;99.90;;;;;;5115125;28;20044;-79
2022/08/26 06:30:32;;;;;;;8.27;1.23;;;20.90;99.90;;;;;;5115228;28;20043;-79
2022/08/26 06:32:59;;;;;;;0.10;0.10;;;21.00;99.90;;;;;;5098480;28;20142;-80
2022/08/26 06:35:25;;;;;;;0.22;0.10;;;20.90;99.90;;;;;;5115061;28;20052;-79
2022/08/26 06:37:51;;;;;;;1.20;0.65;;;21.10;99.90;;;;;;5115047;28;20044;-79
2022/08/26 06:40:16;;;;;;;0.00;0.00;;;21.10;99.90;;;;;;5098088;28;20046;-79
2022/08/26 06:42:42;;;;;;;0.00;0.00;;;21.10;99.90;;;;;;5114808;28;20087;-79
2022/08/26 06:45:08;;;;;;;1.33;0.70;;;21.20;99.90;;;;;;5114936;28;20090;-79
2022/08/26 06:47:35;;;;;;;0.00;0.00;;;21.20;99.90;;;;;;5114548;28;20039;-79
2022/08/26 06:50:01;;;;;;;0.10;0.10;;;21.20;99.90;;;;;;5114790;28;20372;-78
2022/08/26 06:52:26;;;;;;;0.63;0.10;;;21.20;99.90;;;;;;5114627;28;20047;-79
2022/08/26 06:54:52;;;;;;;0.20;0.20;;;21.20;99.90;;;;;;5115209;28;20390;-79
2022/08/26 06:57:18;;;;;;;0.15;0.00;;;21.20;99.90;;;;;;5097690;28;20510;-79
2022/08/26 06:59:43;;;;;;;0.05;0.05;;;21.30;99.90;;;;;;5114483;28;20060;-79
2022/08/26 07:02:09;;;;;;;0.00;0.00;;;21.40;99.90;;;;;;5114452;28;20079;-79
2022/08/26 07:04:35;;;;;;;0.15;0.15;;;21.50;99.90;;;;;;5097710;28;20048;-79
2022/08/26 07:07:00;;;;;;;0.20;0.10;;;21.50;99.90;;;;;;5114330;28;20040;-79
2022/08/26 07:09:29;;;;;;;0.40;0.40;;;21.50;99.90;;;;;;5114737;28;20047;-79
2022/08/26 07:11:55;;;;;;;0.28;0.10;;;21.50;99.90;;;;;;5114652;28;20126;-79
2022/08/26 07:14:21;;;;;;;0.00;0.00;;;21.50;99.90;;;;;;5113920;28;20040;-79
2022/08/26 07:16:48;;;;;;;0.10;0.05;;;21.50;99.90;;;;;;5114349;28;20403;-79
2022/08/26 07:19:16;;;;;;;0.28;0.28;;;21.50;99.90;;;;;;5114112;28;20047;-79
2022/08/26 07:21:42;;;;;;;0.73;0.65;;;21.50;99.90;;;;;;5113871;28;20051;-79
2022/08/26 07:24:09;;;;;;;1.65;0.50;;;21.40;99.90;;;;;;5097288;28;20056;-79
2022/08/26 07:26:34;;;;;;;0.20;0.08;;;21.40;99.90;;;;;;5114046;28;20044;-79
2022/08/26 07:29:01;;;;;;;0.10;0.10;;;21.40;99.90;;;;;;5097119;28;20054;-79
2022/08/26 07:31:31;;;;;;;0.00;0.00;;;21.40;99.90;;;;;;5097080;28;20508;-79
2022/08/26 07:33:57;;;;;;;0.00;0.00;;;21.40;99.90;;;;;;5113837;28;20047;-79
2022/08/26 07:36:24;;;;;;;0.00;0.00;;;21.50;99.90;;;;;;5114135;28;20055;-79
2022/08/26 07:38:51;;;;;;;0.03;0.00;;;21.60;99.90;;;;;;5097394;28;20168;-79
2022/08/26 07:41:19;;;;;;;1.17;0.57;;;21.60;99.90;;;;;;5096798;28;20092;-79
2022/08/26 07:43:45;;;;;;;0.32;0.30;;;21.70;99.90;;;;;;5096776;28;20046;-79
2022/08/26 07:46:17;;;;;;;0.00;0.00;;;21.70;99.90;;;;;;5113626;28;20047;-79
2022/08/26 07:48:44;;;;;;;0.00;0.00;;;21.80;99.90;;;;;;5113639;28;20145;-80
2022/08/26 07:51:10;;;;;;;0.08;0.08;;;21.80;99.90;;;;;;5096666;28;20089;-80
2022/08/26 07:53:36;;;;;;;0.10;0.10;;;21.90;99.90;;;;;;5096629;28;20048;-80
2022/08/26 07:56:02;;;;;;;0.10;0.10;;;21.90;99.90;;;;;;5096981;28;20403;-79
2022/08/26 07:58:28;;;;;;;1.55;1.15;;;22.00;99.90;;;;;;5113273;28;20043;-79
2022/08/26 08:00:54;;;;;;;0.50;0.20;;;22.10;99.90;;;;;;5096093;28;20043;-80
2022/08/26 08:03:20;;;;;;;0.30;0.30;;;22.10;99.90;;;;;;5096808;28;20105;-80
2022/08/26 08:05:45;;;;;;;2.05;0.40;;;22.20;99.90;;;;;;5096455;28;20115;-80
2022/08/26 08:08:11;;;;;;;3.65;0.47;;;22.20;99.90;;;;;;5096384;28;20168;-80
2022/08/26 08:10:38;;;;;;;0.20;0.20;;;22.20;99.90;;;;;;5113785;28;20563;-79
2022/08/26 08:13:06;;;;;;;0.00;0.00;;;22.20;99.90;;;;;;5096509;28;20089;-79
2022/08/26 08:15:33;;;;;;;0.10;0.10;;;22.20;99.90;;;;;;5096364;28;20055;-80
2022/08/26 08:17:59;;;;;;;0.20;0.17;;;22.20;99.90;;;;;;5095912;28;20487;-79
2022/08/26 08:20:26;;;;;;;0.00;0.00;;;22.20;99.90;;;;;;5096175;28;20055;-79
2022/08/26 08:22:52;;;;;;;0.13;0.13;;;22.20;99.90;;;;;;5096556;28;20051;-79
2022/08/26 08:25:19;;;;;;;0.20;0.10;;;22.20;99.90;;;;;;5113345;28;20487;-79
2022/08/26 08:27:47;;;;;;;2.05;0.35;;;22.20;99.90;;;;;;5096177;28;20075;-79
2022/08/26 08:30:15;;;;;;;0.03;0.03;;;22.30;99.90;;;;;;5115578;28;20059;-79
2022/08/26 08:32:44;;;;;;;0.00;0.00;;;22.40;99.90;;;;;;5100808;28;20043;-79
2022/08/26 08:35:12;;;;;;;0.08;0.08;;;22.50;99.90;;;;;;5100506;28;20044;-79
2022/08/26 08:37:39;;;;;;;0.15;0.15;;;22.60;99.90;;;;;;5100695;28;20036;-79
2022/08/26 08:40:07;;;;;;;0.05;0.05;;;22.70;99.90;;;;;;5117609;28;20059;-79
2022/08/26 08:42:37;;;;;;;0.15;0.15;;;22.70;99.90;;;;;;5100333;28;20517;-79
2022/08/26 08:45:09;;;;;;;0.47;0.47;;;22.80;99.90;;;;;;5116984;28;20047;-79
2022/08/26 08:47:51;;;;;;;0.40;0.38;;;22.80;99.90;;;;;;5100307;28;20112;-79
2022/08/26 08:50:38;;;;;;;0.55;0.20;;;22.80;99.90;;;;;;5100553;28;20048;-79
2022/08/26 08:53:22;;;;;;;0.00;0.00;;;22.80;99.90;;;;;;5116778;28;20552;-79
2022/08/26 08:56:09;;;;;;;;;;;22.70;99.90;;;;;;5100420;28;20422;-79
2022/08/26 08:59:04;;;;;;;0.10;0.10;;;22.60;99.90;;;;;;5099971;28;19919;-80
2022/08/26 09:01:43;;;;;;;;;;;22.50;99.90;;;;;;5018943;28;20057;-79
2022/08/26 09:04:20;;;;;;;0.00;0.00;;;22.40;99.90;;;;;;5018983;28;19929;-79
2022/08/26 09:06:48;;;;;;;0.20;0.20;;;22.30;99.90;;;;;;5018648;28;20057;-80
2022/08/26 09:09:22;;;;;;;0.00;0.00;;;22.20;99.90;;;;;;5018357;28;20471;-79
2022/08/26 09:11:48;;;;;;;0.20;0.10;;;22.20;99.90;;;;;;5018831;28;20077;-80
2022/08/26 09:14:14;;;;;;;0.88;0.35;;;22.10;99.90;;;;;;5002274;28;20485;-79
2022/08/26 09:17:08;;;;;;;0.00;0.00;;;22.10;99.90;;;;;;5002153;28;20048;-80
2022/08/26 09:19:48;;;;;;;0.10;0.10;;;22.00;99.90;;;;;;5018554;28;20521;-79
2022/08/26 09:22:32;;;;;;;0.20;0.20;;;22.00;99.90;;;;;;5018314;28;20044;-80
2022/08/26 09:24:58;;;;;;;0.00;0.00;;;22.00;99.90;;;;;;5001309;28;20097;-80
2022/08/26 09:27:46;;;;;;;1.65;0.70;;;22.00;99.90;;;;;;5001935;28;20112;-80
2022/08/26 09:30:34;;;;;;;1.08;0.52;;;22.00;99.90;;;;;;5001959;28;20083;-80
2022/08/26 09:33:05;;;;;;;0.15;0.10;;;22.00;99.90;;;;;;5018404;28;20050;-80
2022/08/26 09:35:39;;;;;;;0.80;0.20;;;22.00;99.90;;;;;;5001945;28;20060;-80
2022/08/26 09:38:35;;;;;;;0.00;0.00;;;22.00;99.90;;;;;;5074300;28;20060;-80
2022/08/26 09:41:04;;;;;;;0.08;0.08;;;22.00;99.90;;;;;;5016809;28;20516;-79
2022/08/26 09:43:30;;;;;;;0.00;0.00;;;22.00;99.90;;;;;;5001272;28;20552;-79
2022/08/26 09:46:21;;;;;;;2.03;0.50;;;22.00;99.90;;;;;;5001330;28;20061;-80
2022/08/26 09:48:47;;;;;;;0.00;0.00;;;21.90;99.90;;;;;;5001690;28;20050;-81
2022/08/26 09:51:18;;;;;;;0.00;0.00;;;21.90;99.90;;;;;;5001405;28;20064;-80
2022/08/26 09:53:54;;;;;;;0.40;0.10;;;21.90;99.90;;;;;;5018321;28;20060;-80
2022/08/26 09:56:22;;;;;;;0.00;0.00;;;22.00;99.90;;;;;;5018186;28;20064;-80
2022/08/26 09:58:49;;;;;;;0.00;0.00;;;22.00;99.90;;;;;;5017441;28;20095;-80
2022/08/26 10:01:24;;;;;;;0.00;0.00;;;22.00;99.90;;;;;;5001543;28;20045;-80
2022/08/26 10:03:50;;;;;;;1.55;0.22;;;22.00;99.90;;;;;;5017953;28;20100;-80
2022/08/26 10:06:15;;;;;;;0.75;0.20;;;22.10;99.90;;;;;;5017939;28;20045;-79
2022/08/26 10:08:44;;;;;;;0.10;0.10;;;22.00;99.90;;;;;;5017738;28;20088;-80
2022/08/26 10:11:18;;;;;;;10.30;1.02;;;22.00;99.90;;;;;;5001232;28;20053;-79
2022/08/26 10:13:49;;;;;;;0.00;0.00;;;22.00;99.90;;;;;;5017529;28;20482;-79
2022/08/26 10:16:22;;;;;;;0.00;0.00;;;22.00;99.90;;;;;;5020741;28;20100;-80
2022/08/26 10:18:59;;;;;;;0.00;0.00;;;22.10;99.90;;;;;;5115468;28;20081;-79
2022/08/26 10:21:34;;;;;;;0.00;0.00;;;22.00;99.90;;;;;;5098190;28;20055;-79
2022/08/26 10:24:02;;;;;;;0.00;0.00;;;22.00;99.90;;;;;;5115605;28;20045;-79
2022/08/26 10:26:44;;;;;;;0.00;0.00;;;22.00;99.90;;;;;;5098672;28;20085;-79
2022/08/26 10:29:32;;;;;;;0.00;0.00;;;21.90;99.90;;;;;;5115977;28;20154;-79
2022/08/26 10:32:03;;;;;;;0.20;0.15;;;22.00;99.90;;;;;;5098619;28;20044;-79
2022/08/26 10:34:31;;;;;;;0.10;0.03;;;21.90;99.90;;;;;;5115756;28;20130;-79
2022/08/26 10:37:01;;;;;;;0.38;0.38;;;21.90;99.90;;;;;;5115112;28;20047;-79
2022/08/26 10:39:36;;;;;;;0.00;0.00;;;21.90;99.90;;;;;;5115240;28;20047;-79
2022/08/26 10:42:08;;;;;;;0.00;0.00;;;21.80;99.90;;;;;;5098164;28;20044;-79
2022/08/26 10:44:38;;;;;;;0.00;0.00;;;21.80;99.90;;;;;;5098552;28;20043;-80
2022/08/26 10:47:20;;;;;;;0.00;0.00;;;21.80;99.90;;;;;;5115096;28;20376;-79
2022/08/26 10:49:48;;;;;;;0.00;0.00;;;21.90;99.90;;;;;;5115120;28;20043;-80
2022/08/26 10:52:24;;;;;;;1.10;0.38;;;21.90;99.90;;;;;;5114579;28;20100;-80
2022/08/26 10:55:01;;;;;;;0.00;0.00;;;22.00;99.90;;;;;;5098084;28;20450;-80
2022/08/26 10:57:51;;;;;;;0.10;0.08;;;22.10;99.90;;;;;;5097648;28;20054;-79
2022/08/26 11:03:29;;;;;;;0.00;0.00;;;22.20;99.90;;;;;;5115247;28;20392;-80
2022/08/26 11:06:13;;;;;;;0.30;0.30;;;22.30;99.90;;;;;;5097676;28;20372;-80
2022/08/26 11:08:47;;;;;;;0.35;0.32;;;22.40;99.90;;;;;;5097146;28;20403;-80
2022/08/26 11:11:38;;;;;;;0.00;0.00;;;22.50;99.90;;;;;;5097606;28;20047;-79
2022/08/26 11:14:07;;;;;;;0.00;0.00;;;22.50;99.90;;;;;;5114286;28;20487;-80
2022/08/26 11:16:40;;;;;;;0.00;0.00;;;22.60;99.90;;;;;;5097382;28;20051;-79
2022/08/26 11:19:08;;;;;;;0.00;0.00;;;22.60;99.90;;;;;;5114345;28;20075;-80
2022/08/26 11:22:01;;;;;;;0.10;0.10;;;22.70;99.90;;;;;;5097119;28;20043;-79
2022/08/26 11:24:51;;;;;;;0.57;0.20;;;22.70;99.90;;;;;;5097548;28;20134;-79
2022/08/26 11:27:35;;;;;;;0.00;0.00;;;22.60;99.90;;;;;;5097009;28;20039;-80
2022/08/26 11:30:14;;;;;;;0.00;0.00;;;22.60;99.90;;;;;;5114169;28;20479;-80
2022/08/26 11:32:40;;;;;;;0.25;0.25;;;22.60;99.90;;;;;;5097263;28;20051;-80
2022/08/26 11:35:40;;;;;;;0.00;0.00;;;22.60;99.90;;;;;;5113943;28;20389;-80
2022/08/26 11:38:28;;;;;;;0.10;0.10;;;22.60;99.90;;;;;;5113731;28;20051;-80
2022/08/26 11:40:58;;;;;;;0.32;0.32;;;22.60;99.90;;;;;;5096837;28;20039;-80
2022/08/26 11:43:26;;;;;;;0.00;0.00;;;22.60;99.90;;;;;;5097129;28;20052;-80
2022/08/26 11:46:03;;;;;;;0.00;0.00;;;22.60;99.90;;;;;;5096995;28;20492;-80
2022/08/26 11:48:32;;;;;;;0.08;0.00;;;22.50;99.90;;;;;;5114009;28;20048;-80
2022/08/26 11:51:04;;;;;;;0.00;0.00;;;22.50;99.90;;;;;;5096685;28;20388;-80
2022/08/26 11:53:33;;;;;;;0.52;0.32;;;22.60;99.90;;;;;;5097327;28;20039;-80
2022/08/26 11:56:04;;;;;;;0.08;0.05;;;22.50;99.90;;;;;;5096810;28;20046;-80
2022/08/26 11:58:30;;;;;;;0.00;0.00;;;22.50;99.90;;;;;;5113426;28;20479;-80
2022/08/26 12:01:05;;;;;;;0.00;0.00;;;22.40;99.90;;;;;;5096307;28;20138;-80
2022/08/26 12:03:34;;;;;;;;;;;22.40;99.90;;;;;;5113556;28;20475;-80
2022/08/26 12:06:01;;;;;;;0.00;0.00;;;22.40;99.90;;;;;;5096546;28;19919;-80
2022/08/26 12:08:30;;;;;;;0.00;0.00;;;22.40;99.90;;;;;;5113302;28;20494;-80
2022/08/26 12:11:05;;;;;;;0.00;0.00;;;22.40;99.90;;;;;;5113573;28;20482;-80
2022/08/26 12:13:32;;;;;;;9.52;0.47;;;22.30;99.90;;;;;;5096605;28;20073;-80
2022/08/26 12:15:59;;;;;;;0.10;0.10;;;22.30;99.90;;;;;;5096789;28;20047;-80
2022/08/26 12:18:37;;;;;;;0.00;0.00;;;22.30;99.90;;;;;;5114013;28;20062;-80
2022/08/26 12:21:19;;;;;;;0.10;0.00;;;22.20;99.90;;;;;;5096794;28;20130;-81
2022/08/26 12:23:46;;;;;;;0.13;0.13;;;22.20;99.90;;;;;;5096533;28;20146;-80
2022/08/26 12:26:31;;;;;;;0.00;0.00;;;22.10;99.90;;;;;;5096557;28;20047;-81
2022/08/26 12:29:07;;;;;;;0.00;0.00;;;22.10;99.90;;;;;;5096999;28;20130;-80
2022/08/26 12:31:38;;;;;;;0.00;0.00;;;22.00;99.90;;;;;;5096489;28;20058;-81
2022/08/26 12:34:07;;;;;;;0.03;0.03;;;22.00;99.90;;;;;;5113547;28;20384;-81
2022/08/26 12:36:51;;;;;;;0.00;0.00;;;21.90;99.90;;;;;;5113751;28;20505;-81
2022/08/26 12:39:25;;;;;;;0.10;0.00;;;21.80;99.90;;;;;;5096896;28;20479;-81
2022/08/26 12:42:02;;;;;;;0.00;0.00;;;21.70;99.90;;;;;;5113671;28;20047;-81
2022/08/26 12:44:37;;;;;;;0.00;0.00;;;21.60;99.90;;;;;;5096324;28;20052;-81
2022/08/26 12:47:07;;;;;;;0.00;0.00;;;21.60;99.90;;;;;;5113226;28;20054;-81
2022/08/26 12:49:38;;;;;;;0.00;0.00;;;21.60;99.90;;;;;;5096117;28;20044;-81
2022/08/26 12:52:06;;;;;;;0.00;0.00;;;21.60;99.90;;;;;;5113110;28;20036;-81
2022/08/26 12:57:25;;;;;;;0.17;0.17;;;21.60;99.90;;;;;;5113713;28;20510;-80
2022/08/26 12:59:51;;;;;;;0.00;0.00;;;21.60;99.90;;;;;;5113976;28;20044;-80
2022/08/26 13:02:38;;;;;;;0.00;0.00;;;21.70;99.90;;;;;;5113352;28;20394;-80
2022/08/26 13:05:04;;;;;;;0.00;0.00;;;21.70;99.90;;;;;;5095990;28;20044;-80
2022/08/26 13:07:30;;;;;;;0.00;0.00;;;21.90;99.90;;;;;;5095794;28;20171;-80
2022/08/26 13:09:58;;;;;;;0.00;0.00;;;21.90;99.90;;;;;;5095704;28;20467;-80
2022/08/26 13:12:31;;;;;;;0.60;0.20;;;21.90;99.90;;;;;;5113196;28;20135;-79